createdAt,value
2022-10-20T00:02:24.720Z,1.00
2022-10-20T00:04:53.298Z,1.00
2022-10-20T00:07:20.175Z,1.00
2022-10-20T00:09:47.389Z,1.00
2022-10-20T00:12:14.299Z,1.00
2022-10-20T00:14:41.620Z,1.00
2022-10-20T00:17:08.571Z,1.00
2022-10-20T00:19:35.925Z,1.00
2022-10-20T00:22:04.689Z,1.00
2022-10-20T00:24:31.931Z,1.00
2022-10-20T00:26:58.977Z,1.00
2022-10-20T00:29:26.297Z,1.00
2022-10-20T00:31:53.139Z,1.00
2022-10-20T00:34:20.374Z,1.00
2022-10-20T00:36:50.414Z,1.00
2022-10-20T00:39:21.085Z,1.00
2022-10-20T00:41:48.145Z,1.00
2022-10-20T00:44:49.214Z,1.00
2022-10-20T00:47:19.662Z,1.00
2022-10-20T00:49:48.417Z,1.00
2022-10-20T00:52:18.573Z,1.00
2022-10-20T00:54:47.821Z,1.00
2022-10-20T00:57:14.786Z,1.00
2022-10-20T00:59:42.246Z,1.00
2022-10-20T01:02:10.338Z,1.00
2022-10-20T01:04:38.274Z,1.00
2022-10-20T01:07:06.070Z,1.00
2022-10-20T01:09:33.708Z,1.00
2022-10-20T01:12:13.231Z,1.00
2022-10-20T01:14:53.812Z,1.00
2022-10-20T01:17:29.308Z,1.00
2022-10-20T01:20:50.777Z,1.00
2022-10-20T01:23:52.118Z,1.00
2022-10-20T01:26:38.876Z,1.00
2022-10-20T01:29:15.101Z,1.00
2022-10-20T01:31:49.135Z,1.00
2022-10-20T01:34:22.229Z,1.00
2022-10-20T01:36:54.707Z,1.00
2022-10-20T01:39:29.892Z,1.00
2022-10-20T01:42:02.207Z,1.00
2022-10-20T01:44:35.091Z,1.00
2022-10-20T01:47:36.971Z,1.00
2022-10-20T01:50:07.694Z,1.00
2022-10-20T01:52:34.962Z,1.00
2022-10-20T01:55:02.466Z,1.00
2022-10-20T01:57:41.209Z,1.00
2022-10-20T02:00:11.792Z,1.00
2022-10-20T02:03:08.765Z,1.00
2022-10-20T02:05:50.517Z,1.00
2022-10-20T02:08:26.756Z,1.00
2022-10-20T02:10:58.819Z,1.00
2022-10-20T02:13:28.442Z,1.00
2022-10-20T02:16:00.814Z,1.00
2022-10-20T02:18:31.353Z,1.00
2022-10-20T02:21:01.242Z,1.00
2022-10-20T02:23:35.039Z,1.00
2022-10-20T02:26:07.325Z,1.00
2022-10-20T02:28:36.070Z,1.00
2022-10-20T02:31:05.143Z,1.00
2022-10-20T02:33:33.760Z,1.00
2022-10-20T02:36:04.297Z,1.00
2022-10-20T02:38:31.542Z,1.00
2022-10-20T02:40:58.769Z,1.00
2022-10-20T02:43:25.630Z,1.00
2022-10-20T02:45:52.796Z,1.00
2022-10-20T02:48:20.940Z,1.00
2022-10-20T02:50:48.051Z,1.00
2022-10-20T02:53:14.986Z,1.00
2022-10-20T02:55:42.442Z,1.00
2022-10-20T02:58:09.776Z,1.00
2022-10-20T03:00:36.946Z,1.00
2022-10-20T03:03:03.862Z,1.00
2022-10-20T03:05:32.547Z,1.00
2022-10-20T03:07:59.445Z,1.00
2022-10-20T03:10:26.667Z,1.00
2022-10-20T03:12:53.444Z,1.00
2022-10-20T03:15:20.712Z,1.00
2022-10-20T03:17:47.506Z,1.00
2022-10-20T03:20:14.659Z,1.00
2022-10-20T03:22:42.785Z,1.00
2022-10-20T03:25:10.170Z,1.00
2022-10-20T03:27:37.283Z,1.00
2022-10-20T03:30:05.406Z,1.00
2022-10-20T03:32:32.836Z,1.00
2022-10-20T03:35:00.222Z,1.00
2022-10-20T03:37:27.074Z,1.00
2022-10-20T03:39:55.627Z,1.00
2022-10-20T03:42:22.528Z,1.00
2022-10-20T03:44:49.693Z,1.00
2022-10-20T03:47:16.557Z,1.00
2022-10-20T03:49:43.919Z,1.00
2022-10-20T03:52:10.724Z,1.00
2022-10-20T03:54:38.274Z,1.00
2022-10-20T03:57:07.838Z,1.00
2022-10-20T03:59:35.163Z,1.00
2022-10-20T04:02:02.127Z,1.00
2022-10-20T04:04:29.370Z,1.00
2022-10-20T04:06:56.366Z,1.00
2022-10-20T04:09:23.580Z,1.00
2022-10-20T04:11:50.449Z,1.00
2022-10-20T04:14:19.673Z,1.00
2022-10-20T04:16:46.533Z,1.00
2022-10-20T04:19:13.948Z,1.00
2022-10-20T04:21:40.913Z,1.00
2022-10-20T04:24:08.277Z,1.00
2022-10-20T04:26:35.195Z,1.00
2022-10-20T04:29:02.778Z,1.00
2022-10-20T04:31:30.993Z,1.00
2022-10-20T04:33:58.322Z,1.00
2022-10-20T04:36:25.830Z,1.00
2022-10-20T04:38:53.078Z,1.00
2022-10-20T04:41:20.023Z,1.00
2022-10-20T04:43:51.577Z,1.00
2022-10-20T04:46:18.932Z,1.00
2022-10-20T04:48:47.542Z,1.00
2022-10-20T04:51:15.993Z,1.00
2022-10-20T04:53:42.842Z,1.00
2022-10-20T04:56:13.846Z,1.00
2022-10-20T04:58:41.031Z,1.00
2022-10-20T05:01:10.062Z,1.00
2022-10-20T05:03:37.800Z,1.00
2022-10-20T05:06:11.205Z,1.00
2022-10-20T05:08:39.231Z,1.00
2022-10-20T05:11:06.620Z,1.00
2022-10-20T05:13:33.844Z,1.00
2022-10-20T05:16:00.742Z,1.00
2022-10-20T05:18:28.701Z,1.00
2022-10-20T05:21:08.433Z,1.00
2022-10-20T05:23:38.661Z,1.00
2022-10-20T05:26:07.123Z,1.00
2022-10-20T05:28:34.591Z,1.00
2022-10-20T05:31:02.874Z,1.00
2022-10-20T05:33:30.279Z,1.00
2022-10-20T05:35:57.224Z,1.00
2022-10-20T05:38:24.189Z,1.00
2022-10-20T05:40:52.406Z,1.00
2022-10-20T05:43:19.707Z,1.00
2022-10-20T05:45:46.533Z,1.00
2022-10-20T05:48:13.415Z,1.00
2022-10-20T05:50:40.319Z,1.00
2022-10-20T05:53:07.510Z,1.00
2022-10-20T05:55:34.705Z,1.00
2022-10-20T05:58:03.042Z,1.00
2022-10-20T06:00:31.425Z,1.00
2022-10-20T06:02:58.879Z,1.00
2022-10-20T06:05:25.697Z,1.00
2022-10-20T06:07:54.781Z,1.00
2022-10-20T06:10:21.739Z,1.00
2022-10-20T06:12:48.616Z,1.00
2022-10-20T06:15:17.002Z,1.00
2022-10-20T06:17:47.193Z,1.00
2022-10-20T06:20:14.149Z,1.00
2022-10-20T06:22:41.449Z,1.00
2022-10-20T06:25:09.068Z,1.00
2022-10-20T06:27:36.323Z,1.00
2022-10-20T06:30:03.311Z,1.00
2022-10-20T06:32:32.136Z,1.00
2022-10-20T06:34:58.995Z,1.00
2022-10-20T06:37:25.850Z,1.00
2022-10-20T06:39:52.698Z,1.00
2022-10-20T06:42:19.880Z,1.00
2022-10-20T06:44:46.771Z,1.00
2022-10-20T06:47:13.972Z,1.00
2022-10-20T06:49:42.186Z,1.00
2022-10-20T06:54:41.300Z,1.00
2022-10-20T06:57:08.492Z,1.00
2022-10-20T06:59:35.375Z,1.00
2022-10-20T07:02:02.643Z,1.00
2022-10-20T07:04:29.639Z,1.00
2022-10-20T07:06:58.400Z,1.00
2022-10-20T07:09:25.316Z,1.00
2022-10-20T07:11:52.876Z,1.00
2022-10-20T07:14:20.638Z,1.00
2022-10-20T07:16:47.869Z,1.00
2022-10-20T07:19:14.836Z,1.00
2022-10-20T07:21:45.639Z,1.00
2022-10-20T07:24:15.351Z,1.00
2022-10-20T07:26:42.959Z,1.00
2022-10-20T07:29:11.045Z,1.00
2022-10-20T07:31:39.784Z,1.00
2022-10-20T07:34:26.661Z,1.00
2022-10-20T07:36:56.584Z,1.00
2022-10-20T07:39:25.795Z,1.00
2022-10-20T07:41:53.311Z,1.00
2022-10-20T07:44:20.466Z,1.00
2022-10-20T07:46:47.868Z,1.00
2022-10-20T07:52:02.710Z,1.00
2022-10-20T07:54:31.771Z,1.00
2022-10-20T07:56:59.196Z,1.00
2022-10-20T07:59:26.146Z,1.00
2022-10-20T08:01:56.091Z,1.00
2022-10-20T08:04:24.343Z,1.00
2022-10-20T08:06:51.260Z,1.00
2022-10-20T08:09:19.069Z,1.00
2022-10-20T08:11:50.364Z,1.00
2022-10-20T08:14:20.214Z,1.00
2022-10-20T08:16:51.062Z,1.00
2022-10-20T08:21:59.713Z,1.00
2022-10-20T08:24:26.807Z,1.00
2022-10-20T08:26:55.221Z,1.00
2022-10-20T08:29:23.020Z,1.00
2022-10-20T08:31:50.090Z,1.00
2022-10-20T08:34:17.390Z,1.00
2022-10-20T08:36:44.508Z,1.00
2022-10-20T08:39:11.684Z,1.00
2022-10-20T08:42:06.527Z,1.00
2022-10-20T08:44:34.694Z,1.00
2022-10-20T08:47:04.037Z,1.00
2022-10-20T08:49:33.640Z,1.00
2022-10-20T08:52:01.068Z,1.00
2022-10-20T08:54:28.412Z,1.00
2022-10-20T08:56:55.386Z,1.00
2022-10-20T08:59:29.475Z,1.00
2022-10-20T09:01:58.043Z,1.00
2022-10-20T09:04:27.980Z,1.00
2022-10-20T09:07:00.162Z,1.00
2022-10-20T09:09:31.047Z,1.00
2022-10-20T09:12:04.687Z,1.00
2022-10-20T09:14:35.683Z,1.00
2022-10-20T09:17:09.140Z,1.00
2022-10-20T09:19:39.055Z,1.00
2022-10-20T09:22:07.663Z,1.00
2022-10-20T09:24:36.766Z,1.00
2022-10-20T09:27:20.251Z,1.00
2022-10-20T09:29:47.206Z,1.00
2022-10-20T09:32:45.488Z,1.00
2022-10-20T09:35:20.979Z,1.00
2022-10-20T09:38:06.615Z,1.00
2022-10-20T09:40:33.708Z,1.00
2022-10-20T09:43:07.917Z,1.00
2022-10-20T09:45:37.234Z,1.00
2022-10-20T09:48:17.802Z,1.00
2022-10-20T09:50:49.658Z,1.00
2022-10-20T09:53:20.290Z,1.00
2022-10-20T09:55:49.944Z,1.00
2022-10-20T09:58:23.377Z,1.00
2022-10-20T10:00:57.675Z,1.00
2022-10-20T10:03:26.600Z,1.00
2022-10-20T10:05:54.778Z,1.00
2022-10-20T10:08:23.491Z,1.00
2022-10-20T10:11:02.074Z,1.00
2022-10-20T10:13:32.455Z,1.00
2022-10-20T10:16:06.274Z,1.00
2022-10-20T10:18:36.276Z,1.00
2022-10-20T10:21:05.955Z,1.00
2022-10-20T10:23:36.999Z,1.00
2022-10-20T10:26:22.755Z,1.00
2022-10-20T10:28:58.803Z,1.00
2022-10-20T10:31:25.783Z,1.00
2022-10-20T10:34:22.871Z,1.00
2022-10-20T10:36:49.868Z,1.00
2022-10-20T10:39:16.842Z,1.00
2022-10-20T10:42:03.679Z,1.00
2022-10-20T10:44:42.125Z,1.00
2022-10-20T10:47:24.659Z,1.00
2022-10-20T10:50:03.131Z,1.00
2022-10-20T10:52:46.039Z,1.00
2022-10-20T10:55:47.158Z,1.00
2022-10-20T10:58:27.335Z,1.00
2022-10-20T11:01:02.582Z,1.00
2022-10-20T11:03:48.570Z,1.00
2022-10-20T11:06:25.208Z,1.00
2022-10-20T11:09:12.971Z,1.00
2022-10-20T11:11:51.245Z,1.00
2022-10-20T11:14:31.224Z,1.00
2022-10-20T11:17:08.487Z,1.00
2022-10-20T11:20:03.412Z,1.00
2022-10-20T11:22:40.875Z,1.00
2022-10-20T11:25:16.830Z,1.00
2022-10-20T11:27:44.276Z,1.00
2022-10-20T11:30:17.125Z,1.00
2022-10-20T11:32:50.625Z,1.00
2022-10-20T11:35:27.986Z,1.00
2022-10-20T11:38:11.432Z,1.00
2022-10-20T11:40:40.648Z,1.00
2022-10-20T11:43:16.359Z,1.00
2022-10-20T11:45:50.209Z,1.00
2022-10-20T11:48:25.529Z,1.00
2022-10-20T11:51:10.124Z,1.00
2022-10-20T11:53:57.221Z,1.00
2022-10-20T11:56:51.506Z,1.00
2022-10-20T11:59:52.545Z,1.00
2022-10-20T12:02:59.706Z,1.00
2022-10-20T12:05:56.345Z,1.00
2022-10-20T12:08:43.797Z,1.00
2022-10-20T12:11:18.033Z,1.00
2022-10-20T12:13:57.334Z,1.00
2022-10-20T12:17:13.012Z,1.00
2022-10-20T12:19:40.098Z,1.00
2022-10-20T12:22:35.065Z,1.00
2022-10-20T12:25:19.250Z,1.00
2022-10-20T12:28:07.832Z,1.00
2022-10-20T12:30:44.448Z,1.00
2022-10-20T12:33:19.997Z,99.90
2022-10-20T12:36:23.690Z,99.90
2022-10-20T12:38:54.339Z,1.00
2022-10-20T12:41:27.844Z,1.00
2022-10-20T12:43:59.197Z,1.00
2022-10-20T12:46:31.348Z,1.00
2022-10-20T12:49:03.899Z,1.40
2022-10-20T12:51:36.123Z,1.00
2022-10-20T12:54:08.588Z,1.00
2022-10-20T12:56:39.615Z,99.90
2022-10-20T12:59:39.781Z,1.00
2022-10-20T13:02:32.842Z,1.00
2022-10-20T13:05:02.572Z,99.90
2022-10-20T13:08:04.606Z,1.00
2022-10-20T13:10:36.328Z,1.00
2022-10-20T13:13:49.353Z,1.00
2022-10-20T13:16:20.890Z,1.00
2022-10-20T13:18:51.590Z,1.00
2022-10-20T13:21:26.712Z,1.00
2022-10-20T13:24:00.646Z,1.00
2022-10-20T13:26:30.493Z,1.00
2022-10-20T13:28:59.820Z,1.00
2022-10-20T13:31:31.624Z,1.00
2022-10-20T13:34:07.500Z,1.00
2022-10-20T13:36:55.617Z,1.00
2022-10-20T13:39:31.253Z,1.00
2022-10-20T13:42:07.554Z,1.00
2022-10-20T13:44:44.239Z,1.00
2022-10-20T13:47:37.436Z,1.00
2022-10-20T13:50:12.421Z,1.00
2022-10-20T13:52:44.300Z,1.00
2022-10-20T13:55:17.511Z,1.00
2022-10-20T13:57:55.458Z,1.00
2022-10-20T14:00:25.607Z,1.00
2022-10-20T14:02:56.120Z,1.00
2022-10-20T14:05:25.420Z,1.00
2022-10-20T14:07:53.518Z,1.00
2022-10-20T14:10:23.008Z,1.00
2022-10-20T14:12:50.642Z,1.00
2022-10-20T14:15:23.787Z,1.00
2022-10-20T14:17:59.992Z,1.00
2022-10-20T14:20:29.296Z,1.00
2022-10-20T14:22:58.531Z,1.00
2022-10-20T14:25:26.654Z,1.00
2022-10-20T14:27:54.858Z,1.00
2022-10-20T14:30:22.578Z,1.00
2022-10-20T14:32:50.967Z,1.00
2022-10-20T14:35:33.017Z,1.00
2022-10-20T14:38:03.748Z,1.00
2022-10-20T14:40:33.808Z,1.00
2022-10-20T14:43:03.514Z,1.00
2022-10-20T14:48:03.188Z,1.00
2022-10-20T14:50:37.086Z,1.00
2022-10-20T14:53:18.436Z,1.00
2022-10-20T14:55:45.899Z,1.00
2022-10-20T14:58:37.389Z,1.00
2022-10-20T15:01:24.739Z,1.00
2022-10-20T15:04:06.617Z,1.00
2022-10-20T15:06:35.261Z,1.00
2022-10-20T15:09:03.955Z,1.00
2022-10-20T15:11:32.240Z,1.00
2022-10-20T15:14:01.232Z,1.00
2022-10-20T15:16:34.764Z,1.00
2022-10-20T15:19:29.675Z,1.00
2022-10-20T15:22:09.365Z,1.00
2022-10-20T15:24:37.434Z,1.00
2022-10-20T15:27:05.216Z,1.00
2022-10-20T15:29:33.416Z,1.00
2022-10-20T15:32:00.366Z,1.00
2022-10-20T15:34:27.654Z,1.00
2022-10-20T15:36:55.266Z,1.00
2022-10-20T15:39:23.801Z,1.00
2022-10-20T15:41:53.762Z,1.00
2022-10-20T15:44:22.580Z,1.00
2022-10-20T15:46:53.362Z,1.00
2022-10-20T15:49:20.876Z,1.00
2022-10-20T15:51:48.351Z,1.00
2022-10-20T15:54:17.722Z,1.00
2022-10-20T15:56:46.209Z,1.00
2022-10-20T15:59:13.715Z,1.00
2022-10-20T16:01:40.768Z,1.00
2022-10-20T16:04:17.501Z,1.00
2022-10-20T16:06:44.861Z,1.00
2022-10-20T16:09:15.795Z,1.00
2022-10-20T16:11:44.942Z,1.00
2022-10-20T16:14:12.316Z,1.00
2022-10-20T16:16:39.542Z,1.00
2022-10-20T16:19:06.724Z,1.00
2022-10-20T16:21:33.980Z,1.00
2022-10-20T16:24:04.256Z,1.00
2022-10-20T16:26:31.233Z,1.00
2022-10-20T16:28:59.978Z,1.00
2022-10-20T16:31:26.938Z,1.00
2022-10-20T16:33:54.323Z,1.00
2022-10-20T16:36:21.786Z,1.00
2022-10-20T16:38:54.191Z,1.00
2022-10-20T16:41:21.156Z,1.00
2022-10-20T16:43:48.493Z,1.00
2022-10-20T16:46:16.811Z,1.00
2022-10-20T16:48:47.549Z,1.00
2022-10-20T16:51:18.015Z,1.00
2022-10-20T16:53:45.449Z,1.00
2022-10-20T16:56:15.396Z,1.00
2022-10-20T16:58:45.363Z,1.00
2022-10-20T17:01:15.736Z,1.00
2022-10-20T17:03:46.392Z,1.00
2022-10-20T17:06:14.594Z,1.00
2022-10-20T17:08:41.651Z,1.00
2022-10-20T17:11:10.682Z,1.00
2022-10-20T17:13:39.457Z,1.00
2022-10-20T17:16:08.414Z,1.00
2022-10-20T17:18:36.216Z,1.00
2022-10-20T17:21:05.020Z,1.00
2022-10-20T17:23:36.259Z,1.00
2022-10-20T17:26:07.229Z,1.00
2022-10-20T17:28:36.631Z,1.00
2022-10-20T17:31:06.743Z,1.00
2022-10-20T17:33:33.899Z,1.00
2022-10-20T17:36:01.411Z,1.00
2022-10-20T17:38:30.274Z,1.00
2022-10-20T17:41:02.816Z,1.00
2022-10-20T17:43:29.874Z,1.00
2022-10-20T17:45:57.372Z,1.00
2022-10-20T17:48:24.478Z,1.00
2022-10-20T17:50:59.355Z,1.00
2022-10-20T17:53:26.376Z,1.00
2022-10-20T17:55:54.770Z,1.00
2022-10-20T17:58:21.988Z,1.00
2022-10-20T18:00:56.502Z,1.00
2022-10-20T18:03:24.416Z,1.00
2022-10-20T18:05:51.420Z,1.00
2022-10-20T18:08:18.674Z,1.00
2022-10-20T18:10:45.550Z,1.00
2022-10-20T18:13:14.226Z,1.00
2022-10-20T18:15:44.260Z,1.00
2022-10-20T18:18:11.558Z,1.00
2022-10-20T18:20:38.466Z,1.00
2022-10-20T18:23:05.707Z,1.00
2022-10-20T18:25:34.975Z,8.60
2022-10-20T18:28:02.312Z,24.80
2022-10-20T18:30:30.487Z,38.20
2022-10-20T18:32:57.672Z,41.40
2022-10-20T18:35:24.753Z,63.10
2022-10-20T18:37:57.741Z,84.70
2022-10-20T18:40:24.815Z,84.20
2022-10-20T18:42:51.966Z,91.10
2022-10-20T18:45:21.359Z,96.50
2022-10-20T18:47:52.059Z,99.90
2022-10-20T18:50:19.087Z,99.90
2022-10-20T18:52:45.885Z,99.90
2022-10-20T18:55:13.260Z,99.90
2022-10-20T18:57:40.303Z,99.90
2022-10-20T19:00:09.102Z,99.90
2022-10-20T19:02:36.246Z,99.90
2022-10-20T19:05:05.284Z,99.90
2022-10-20T19:07:32.953Z,99.90
2022-10-20T19:10:01.048Z,99.90
2022-10-20T19:12:28.063Z,99.90
2022-10-20T19:14:54.919Z,99.90
2022-10-20T19:17:21.868Z,99.90
2022-10-20T19:19:48.873Z,99.90
2022-10-20T19:22:17.411Z,99.90
2022-10-20T19:24:44.423Z,99.90
2022-10-20T19:27:26.221Z,99.90
2022-10-20T19:29:56.166Z,99.90
2022-10-20T19:32:23.101Z,99.90
2022-10-20T19:34:50.452Z,99.90
2022-10-20T19:37:18.779Z,99.90
2022-10-20T19:39:45.916Z,99.90
2022-10-20T19:42:13.650Z,99.90
2022-10-20T19:44:40.914Z,99.90
2022-10-20T19:47:08.248Z,99.90
2022-10-20T19:49:35.615Z,99.90
2022-10-20T19:52:03.126Z,99.90
2022-10-20T19:54:31.866Z,99.90
2022-10-20T19:56:59.009Z,99.90
2022-10-20T19:59:26.295Z,99.90
2022-10-20T20:01:53.191Z,99.90
2022-10-20T20:04:20.728Z,99.90
2022-10-20T20:06:48.052Z,99.90
2022-10-20T20:09:17.912Z,99.90
2022-10-20T20:11:46.197Z,99.90
2022-10-20T20:14:15.499Z,99.90
2022-10-20T20:19:16.752Z,99.90
2022-10-20T20:21:44.080Z,99.90
2022-10-20T20:24:13.600Z,99.90
2022-10-20T20:26:40.738Z,99.90
2022-10-20T20:29:09.878Z,99.90
2022-10-20T20:31:36.815Z,99.90
2022-10-20T20:34:03.741Z,99.90
2022-10-20T20:36:30.667Z,99.90
2022-10-20T20:38:59.468Z,99.90
2022-10-20T20:41:28.088Z,99.90
2022-10-20T20:43:55.576Z,99.90
2022-10-20T20:46:27.480Z,99.90
2022-10-20T20:48:54.712Z,99.90
2022-10-20T20:51:21.645Z,99.90
2022-10-20T20:53:48.642Z,99.90
2022-10-20T20:56:19.587Z,99.90
2022-10-20T20:58:49.284Z,99.90
2022-10-20T21:01:18.174Z,99.90
2022-10-20T21:03:47.012Z,99.90
2022-10-20T21:06:15.772Z,99.90
2022-10-20T21:08:44.643Z,99.90
2022-10-20T21:11:13.564Z,99.90
2022-10-20T21:13:41.937Z,99.90
2022-10-20T21:16:11.203Z,99.90
2022-10-20T21:18:38.464Z,99.90
2022-10-20T21:21:13.049Z,99.90
2022-10-20T21:23:40.454Z,99.90
2022-10-20T21:26:08.309Z,99.90
2022-10-20T21:28:35.805Z,99.90
2022-10-20T21:31:04.734Z,99.90
2022-10-20T21:33:31.697Z,99.90
2022-10-20T21:36:01.975Z,99.90
2022-10-20T21:38:31.955Z,99.90
2022-10-20T21:41:03.512Z,99.90
2022-10-20T21:43:31.195Z,99.90
2022-10-20T21:46:12.177Z,99.90
2022-10-20T21:48:39.869Z,99.90
2022-10-20T21:51:09.357Z,99.90
2022-10-20T21:53:37.901Z,99.90
2022-10-20T21:56:05.611Z,99.90
2022-10-20T21:58:33.429Z,99.90
2022-10-20T22:01:00.924Z,99.90
2022-10-20T22:03:27.903Z,99.90
2022-10-20T22:05:54.948Z,99.90
2022-10-20T22:08:21.818Z,99.90
2022-10-20T22:10:50.081Z,99.90
2022-10-20T22:13:16.946Z,99.90
2022-10-20T22:15:44.208Z,99.90
2022-10-20T22:18:11.032Z,99.90
2022-10-20T22:20:38.723Z,99.90
2022-10-20T22:23:08.667Z,99.90
2022-10-20T22:25:37.703Z,99.90
2022-10-20T22:28:06.455Z,99.90
2022-10-20T22:30:34.378Z,99.90
2022-10-20T22:33:01.483Z,99.90
2022-10-20T22:35:28.964Z,99.90
2022-10-20T22:37:55.978Z,99.90
2022-10-20T22:40:23.328Z,99.90
2022-10-20T22:42:50.310Z,99.90
2022-10-20T22:45:18.737Z,99.90
2022-10-20T22:47:45.615Z,99.90
2022-10-20T22:50:13.201Z,99.90
2022-10-20T22:52:40.341Z,99.90
2022-10-20T22:55:08.211Z,99.90
2022-10-20T22:57:35.361Z,99.90
2022-10-20T23:00:02.372Z,99.90
2022-10-20T23:02:30.513Z,99.90
2022-10-20T23:04:57.517Z,99.90
2022-10-20T23:07:24.414Z,99.90
2022-10-20T23:09:51.474Z,99.90
2022-10-20T23:12:18.381Z,99.90
2022-10-20T23:14:45.365Z,99.90
2022-10-20T23:17:12.259Z,99.90
2022-10-20T23:19:40.860Z,99.90
2022-10-20T23:22:07.903Z,99.90
2022-10-20T23:24:35.520Z,99.90
2022-10-20T23:27:02.460Z,99.90
2022-10-20T23:29:29.458Z,99.90
2022-10-20T23:31:56.407Z,99.90
2022-10-20T23:34:24.164Z,99.90
2022-10-20T23:36:52.447Z,99.90
2022-10-20T23:39:19.308Z,99.90
2022-10-20T23:41:46.247Z,99.90
2022-10-20T23:44:13.669Z,99.90
2022-10-20T23:46:40.657Z,99.90
2022-10-20T23:49:07.923Z,99.90
2022-10-20T23:51:34.821Z,99.90
2022-10-20T23:54:03.539Z,99.90
2022-10-20T23:56:30.502Z,99.90
2022-10-20T23:58:57.688Z,99.90
